• Join FlightAware (Why Join?)
  • Login
  • US Flag 
12:10AM EDT


 

Airport Tracker/Info


-or-


 

Live Flight TrackerFlight Track Log ✈ N210PM ✈ 19-Sep-2013 ✈ KMTJ - KLNK

Flight Track Log - Related Links

Times and Time Zones

All times are in EDT time to prevent confusion due to time zone crossing. See the N210PM flight status page for this flight to view local times or setup timezone preferences in your user account.

Time Position Orientation Groundspeed Altitude Reporting Facility
EDT Latitude Longitude Course Direction KTS MPH feet Rate Location/Type
04:01PM 38.5294 -107.8928 72° East 181 208 5,900  Level Denver Center
04:02PM 38.6819 -107.2398 75° East  Level Estimated
04:02PM 38.5742 -107.8861 North 166 191 7,700  Level Denver Center
04:03PM 38.7102 -107.1304 72° East  Level Estimated
04:03PM 38.5967 -107.8217 66° East 190 219 9,300  Level Denver Center
04:04PM 38.7384 -107.0209 70° East  Level Estimated
04:04PM 38.6114 -107.7669 71° East 196 226 10,600  Level Denver Center
04:05PM 38.7665 -106.9113 78° East  Level Estimated
04:05PM 38.6381 -107.6650 71° East 209 241 13,000  Level Denver Center
04:06PM 38.7945 -106.8017 72° East  Level Estimated
04:06PM 38.6586 -107.5844 72° East 226 260 14,600  Level Denver Center
04:07PM 38.6778 -107.5092 72° East 234 269 16,100 1,380 Climbing Denver Center
04:08PM 38.7006 -107.4219 71° East 245 282 17,500 1,320 Climbing Denver Center
04:09PM 38.7225 -107.3361 72° East 252 290 18,900 1,140 Climbing Denver Center
04:11PM 38.7436 -107.2503 72° East 254 292 20,100 1,260 Climbing Denver Center
04:12PM 38.7769 -107.1228 71° East 267 307 21,800 1,440 Climbing Denver Center
04:13PM 38.8000 -107.0289 72° East 275 316 23,100 1,140 Climbing Denver Center
04:14PM 38.8244 -106.9325 72° East 283 326 24,200 1,080 Climbing Denver Center
04:15PM 38.8486 -106.8342 72° East 289 333 25,400 1,020 Climbing Denver Center
04:16PM 38.8731 -106.7336 73° East 294 338 26,400 1,020 Climbing Denver Center
04:17PM 38.9036 -106.6139 72° East 306 352 27,600 960 Climbing Denver Center
04:18PM 38.9278 -106.5108 73° East 311 358 28,500 960 Climbing Denver Center
04:19PM 38.9575 -106.3897 72° East 319 367 29,700 960 Climbing Denver Center
04:20PM 38.9833 -106.2858 72° East 320 368 30,600 840 Climbing Denver Center
04:21PM 39.0139 -106.1600 73° East 326 375 31,500 900 Climbing Denver Center
04:22PM 39.0408 -106.0489 73° East 326 375 32,500 780 Climbing Denver Center
04:23PM 39.0675 -105.9364 73° East 329 379 33,200 720 Climbing Denver Center
04:24PM 39.0953 -105.8231 72° East 333 383 34,000 660 Climbing Denver Center
04:25PM 39.1214 -105.7086 74° East 334 384 34,600 480 Climbing Denver Center
04:26PM 39.1489 -105.5942 73° East 336 387 35,000 180 Climbing Denver Center
04:27PM 39.1850 -105.4453 73° East 368 423 35,000  Level Denver Center
04:28PM 39.2153 -105.3164 73° East 377 434 35,000  Level Denver Center
04:29PM 39.2467 -105.1825 73° East 389 448 35,000  Level Denver Center
04:30PM 39.2772 -105.0464 74° East 396 456 35,000  Level Denver Center
04:31PM 39.3089 -104.9078 74° East 403 464 35,000  Level Denver Center
04:32PM 39.3461 -104.7450 73° East 400 460 35,000  Level Denver Center
04:33PM 39.3767 -104.6081 74° East 403 464 35,000  Level Denver Center
04:35PM 39.4078 -104.4706 74° East 405 466 35,000  Level Denver Center
04:36PM 39.4442 -104.3056 74° East 403 464 35,000  Level Denver Center
04:37PM 39.4747 -104.1667 74° East 403 464 35,000  Level Denver Center
04:38PM 39.5183 -103.9711 74° East 405 466 35,000  Level Denver Center
04:39PM 39.5483 -103.8319 74° East 404 465 35,000  Level Denver Center
04:40PM 39.5797 -103.6947 73° East 395 455 35,000  Level Denver Center
04:41PM 39.6103 -103.5561 74° East 400 460 35,000  Level Denver Center
04:42PM 39.6400 -103.4164 75° East 403 464 35,000  Level Denver Center
04:43PM 39.6753 -103.2469 75° East 405 466 35,000  Level Denver Center
04:44PM 39.7050 -103.1056 75° East 406 467 35,000  Level Denver Center
04:45PM 39.7356 -102.9658 74° East 404 465 35,000  Level Denver Center
04:46PM 39.7650 -102.8247 75° East 406 467 35,000  Level Denver Center
04:47PM 39.7964 -102.6733 75° East 403 464 35,000  Level Denver Center
04:48PM 39.8242 -102.5375 75° East 406 467 35,000  Level Denver Center
04:49PM 39.8558 -102.3800 75° East 404 465 35,000  Level Denver Center
04:50PM 39.8839 -102.2447 75° East 405 466 35,000  Level Denver Center
04:52PM 39.9164 -102.0861 75° East 406 467 35,000  Level Denver Center
04:53PM 39.9522 -101.9053 75° East 405 466 35,000  Level Denver Center
04:54PM 39.9794 -101.7703 75° East 403 464 35,000  Level Denver Center
04:55PM 40.0108 -101.6128 75° East 403 464 35,000  Level Denver Center
04:56PM 40.0369 -101.4772 76° East 403 464 35,000  Level Denver Center
04:57PM 40.0675 -101.3203 76° East 402 463 35,000  Level Denver Center
04:58PM 40.0933 -101.1858 76° East 401 461 35,000  Level Denver Center
04:59PM 40.1142 -101.0731 76° East 401 461 35,000  Level Denver Center
05:00PM 40.1444 -100.9158 76° East 402 463 35,000  Level Denver Center
05:01PM 40.1786 -100.7353 76° East 402 463 35,000  Level Denver Center
05:02PM 40.2078 -100.5783 76° East 400 460 35,000  Level Denver Center
05:03PM 40.2372 -100.4200 76° East 402 463 35,000  Level Denver Center
05:04PM 40.2617 -100.2867 76° East 398 458 35,000  Level Denver Center
05:05PM 40.2900 -100.1292 77° East 398 458 35,000  Level Denver Center
05:06PM 40.3150 -99.9964 76° East 396 456 35,000  Level Denver Center
05:07PM 40.3392 -99.8603 77° East 390 449 35,000  Level Denver Center
05:08PM 40.3589 -99.7508 77° East 385 443 35,000 -420 Level Denver Center
05:09PM 40.3831 -99.6169 77° East 383 441 34,300 -1,020 Descending Minneapolis Center
05:10PM 40.4094 -99.4725 76° East 399 459 33,300 -660 Descending Minneapolis Center
05:11PM 40.4353 -99.3219 77° East 416 479 33,000 -180 Descending Minneapolis Center
05:12PM 40.4592 -99.1797 78° East 407 468 33,000  Level Minneapolis Center
05:13PM 40.4828 -99.0422 77° East 394 453 33,000 -300 Level Minneapolis Center
05:14PM 40.5108 -98.8778 77° East 388 447 32,500 -1,260 Descending Minneapolis Center
05:15PM 40.5353 -98.7344 77° East 397 457 30,500 -2,040 Descending Minneapolis Center
05:16PM 40.5594 -98.5867 78° East 410 472 28,300 -2,100 Descending Minneapolis Center
05:17PM 40.5839 -98.4436 77° East 406 467 26,200 -2,040 Descending Minneapolis Center
05:18PM 40.6064 -98.3053 78° East 396 456 24,100 -2,220 Descending Minneapolis Center
05:19PM 40.6342 -98.1439 77° East 383 441 21,700 -2,100 Descending Minneapolis Center
05:20PM 40.6544 -98.0119 79° East 374 430 19,800 -1,860 Descending Minneapolis Center
05:21PM 40.6758 -97.8869 77° East 359 413 17,900 -1,800 Descending Minneapolis Center
05:22PM 40.6947 -97.7631 79° East 349 402 16,100 -1,800 Descending Minneapolis Center
05:24PM 40.7133 -97.6403 79° East 345 397 14,200 -2,040 Descending Minneapolis Center
05:24PM 40.7103 -97.5281 92° East 338 389 12,600 -1,800 Descending Minneapolis Center
05:25PM 40.7331 -97.5200 15° North 340 391 12,400 -1,680 Descending Minneapolis Center
05:25PM 40.7181 -97.3983 99° East 325 374 10,700 -2,040 Descending Minneapolis Center
05:26PM 40.7406 -97.3772 35° Northeast 329 379 10,300 -1,560 Descending Minneapolis Center
05:27PM 40.7453 -97.2764 86° East 321 369 8,800 -1,680 Descending Minneapolis Center
05:27PM 40.7364 -97.1578 96° East 303 349 7,100 -1,860 Descending Minneapolis Center
05:28PM 40.7533 -97.1436 32° Northeast 309 356 6,900 -1,620 Descending Minneapolis Center
05:28PM 40.7386 -97.0475 101° East 279 321 5,500 -1,560 Descending Minneapolis Center
05:29PM 40.7519 -97.0406 22° Northeast 290 334 5,300 -1,380 Descending Minneapolis Center
05:30PM 40.7347 -96.9461 104° East 273 314 4,100 -1,260 Descending Minneapolis Center
05:30PM 40.7461 -96.9422 15° North 278 320 4,000 -1,140 Descending Minneapolis Center
05:31PM 40.7358 -96.8553 99° East 251 289 3,000 -1,020 Descending Minneapolis Center
05:31PM 40.7478 -96.8494 20° North 268 308 3,000 -360 Level Minneapolis Center
05:32PM 40.7606 -96.7758 77° East 155 178 2,600 -420 Descending Minneapolis Center
05:32PM 40.7714 -96.7844 329° Northwest 224 258 2,600 -600 Level Minneapolis Center
05:33PM 40.8089 -96.7461 38° Northeast 95 109 1,600 -600 Descending Minneapolis Center
05:34PM 40.8311 -96.7517 349° North 118 136 1,400 -480 Descending Minneapolis Center
05:36PM 40.8500 -96.7500 346° North  Level FlightAware Approximate